Ainsworth, Nebraska
Current Conditions -  °F | °C
As of 2:35 PM on Friday 28 Nov 2014 (Local Time) from KANW Reporting Station
Clear Clear  
Wind Chill: 65°   Ceiling: Unl
Heat Index: 65°   Visibility: 10mi
Dew Point: 28°   Wind: 16mph
Humidity: 25%   Direction: 290°WNW
Pressure: 29.64"   Gusts: NA
Location:  42.55°N, 99.86°W
Report Text: KANW 282035Z AUTO 29014KT 10SM CLR 18/M02 A2964 RMK AO2 T01821024
Loading
Personal Weather Stations






























Interactive Weather Map New forecast layout! Learn more

10-Day Weather Forecast

Advertisements
Track Severe Weather on mobile